sensor_id;sensor_type;location;lat;lon;timestamp;pressure;altitude;pressure_sealevel;temperature;humidity
47913;BME280;33676;51.006;17.180;2023-05-31T00:01:49;100931.08;;;11.59;61.80
47913;BME280;33676;51.006;17.180;2023-05-31T00:04:18;100932.16;;;11.56;61.91
47913;BME280;33676;51.006;17.180;2023-05-31T00:06:46;100936.59;;;11.53;62.24
47913;BME280;33676;51.006;17.180;2023-05-31T00:09:15;100934.23;;;11.49;62.28
47913;BME280;33676;51.006;17.180;2023-05-31T00:11:43;100937.77;;;11.46;62.48
47913;BME280;33676;51.006;17.180;2023-05-31T00:14:12;100940.75;;;11.42;62.51
47913;BME280;33676;51.006;17.180;2023-05-31T00:16:40;100940.77;;;11.37;62.69
47913;BME280;33676;51.006;17.180;2023-05-31T00:19:29;100940.90;;;11.33;62.76
47913;BME280;33676;51.006;17.180;2023-05-31T00:21:57;100940.48;;;11.28;62.80
47913;BME280;33676;51.006;17.180;2023-05-31T00:24:26;100940.20;;;11.25;62.84
47913;BME280;33676;51.006;17.180;2023-05-31T00:26:54;100939.45;;;11.23;62.94
47913;BME280;33676;51.006;17.180;2023-05-31T00:29:23;100938.39;;;11.21;63.02
47913;BME280;33676;51.006;17.180;2023-05-31T00:31:51;100935.22;;;11.16;63.20
47913;BME280;33676;51.006;17.180;2023-05-31T00:34:20;100934.11;;;11.14;63.33
47913;BME280;33676;51.006;17.180;2023-05-31T00:36:48;100935.88;;;11.14;63.41
47913;BME280;33676;51.006;17.180;2023-05-31T00:39:17;100934.23;;;11.15;63.40
47913;BME280;33676;51.006;17.180;2023-05-31T00:41:45;100931.10;;;11.15;63.54
47913;BME280;33676;51.006;17.180;2023-05-31T00:44:13;100931.77;;;11.15;63.69
47913;BME280;33676;51.006;17.180;2023-05-31T00:46:42;100932.66;;;11.15;63.86
47913;BME280;33676;51.006;17.180;2023-05-31T00:49:11;100930.70;;;11.15;64.01
47913;BME280;33676;51.006;17.180;2023-05-31T00:51:42;100927.69;;;11.14;64.05
47913;BME280;33676;51.006;17.180;2023-05-31T00:54:10;100929.20;;;11.12;64.02
47913;BME280;33676;51.006;17.180;2023-05-31T00:56:39;100923.62;;;11.09;64.15
47913;BME280;33676;51.006;17.180;2023-05-31T00:59:08;100927.21;;;11.05;64.21
47913;BME280;33676;51.006;17.180;2023-05-31T01:01:36;100929.21;;;11.02;64.33
47913;BME280;33676;51.006;17.180;2023-05-31T01:04:09;100923.37;;;11.00;64.41
47913;BME280;33676;51.006;17.180;2023-05-31T01:06:38;100928.68;;;10.99;64.39
47913;BME280;33676;51.006;17.180;2023-05-31T01:09:07;100929.31;;;10.98;64.52
47913;BME280;33676;51.006;17.180;2023-05-31T01:12:00;100931.98;;;10.94;64.67
47913;BME280;33676;51.006;17.180;2023-05-31T01:14:46;100933.59;;;10.91;64.69
47913;BME280;33676;51.006;17.180;2023-05-31T01:17:50;100939.25;;;10.88;64.82
47913;BME280;33676;51.006;17.180;2023-05-31T01:20:22;100938.74;;;10.83;64.80
47913;BME280;33676;51.006;17.180;2023-05-31T01:23:31;100938.23;;;10.78;64.81
47913;BME280;33676;51.006;17.180;2023-05-31T01:28:42;100939.40;;;10.71;65.16
47913;BME280;33676;51.006;17.180;2023-05-31T01:31:16;100941.58;;;10.67;65.10
47913;BME280;33676;51.006;17.180;2023-05-31T01:33:48;100941.83;;;10.64;65.28
47913;BME280;33676;51.006;17.180;2023-05-31T01:36:18;100945.35;;;10.60;65.42
47913;BME280;33676;51.006;17.180;2023-05-31T01:38:46;100943.96;;;10.58;65.64
47913;BME280;33676;51.006;17.180;2023-05-31T01:41:16;100947.81;;;10.55;65.74
47913;BME280;33676;51.006;17.180;2023-05-31T01:43:46;100943.47;;;10.52;65.88
47913;BME280;33676;51.006;17.180;2023-05-31T01:46:17;100945.13;;;10.48;65.88
47913;BME280;33676;51.006;17.180;2023-05-31T01:48:47;100943.02;;;10.43;65.96
47913;BME280;33676;51.006;17.180;2023-05-31T01:51:16;100944.32;;;10.40;66.05
47913;BME280;33676;51.006;17.180;2023-05-31T01:53:45;100943.09;;;10.37;66.07
47913;BME280;33676;51.006;17.180;2023-05-31T01:56:15;100949.34;;;10.35;66.08
47913;BME280;33676;51.006;17.180;2023-05-31T01:58:45;100948.30;;;10.33;66.03
47913;BME280;33676;51.006;17.180;2023-05-31T02:01:18;100951.02;;;10.28;66.40
47913;BME280;33676;51.006;17.180;2023-05-31T02:03:50;100946.31;;;10.23;66.30
47913;BME280;33676;51.006;17.180;2023-05-31T02:06:19;100952.50;;;10.19;66.59
47913;BME280;33676;51.006;17.180;2023-05-31T02:08:49;100951.23;;;10.14;66.69
47913;BME280;33676;51.006;17.180;2023-05-31T02:11:17;100953.94;;;10.10;66.92
47913;BME280;33676;51.006;17.180;2023-05-31T02:13:46;100956.69;;;10.05;67.00
47913;BME280;33676;51.006;17.180;2023-05-31T02:16:14;100955.54;;;10.02;67.26
47913;BME280;33676;51.006;17.180;2023-05-31T02:18:42;100961.86;;;9.99;67.35
47913;BME280;33676;51.006;17.180;2023-05-31T02:21:13;100962.69;;;9.96;67.44
47913;BME280;33676;51.006;17.180;2023-05-31T02:23:41;100966.34;;;9.93;67.68
47913;BME280;33676;51.006;17.180;2023-05-31T02:26:09;100966.81;;;9.92;67.73
47913;BME280;33676;51.006;17.180;2023-05-31T02:28:38;100970.10;;;9.89;67.85
47913;BME280;33676;51.006;17.180;2023-05-31T02:31:06;100969.26;;;9.87;67.81
47913;BME280;33676;51.006;17.180;2023-05-31T02:33:35;100974.52;;;9.84;67.78
47913;BME280;33676;51.006;17.180;2023-05-31T02:36:04;100972.71;;;9.79;67.84
47913;BME280;33676;51.006;17.180;2023-05-31T02:38:32;100970.11;;;9.76;67.95
47913;BME280;33676;51.006;17.180;2023-05-31T02:41:00;100970.89;;;9.75;68.01
47913;BME280;33676;51.006;17.180;2023-05-31T02:43:29;100973.17;;;9.75;68.30
47913;BME280;33676;51.006;17.180;2023-05-31T02:46:01;100974.01;;;9.75;68.44
47913;BME280;33676;51.006;17.180;2023-05-31T02:48:30;100968.97;;;9.75;68.46
47913;BME280;33676;51.006;17.180;2023-05-31T02:50:58;100970.39;;;9.75;68.57
47913;BME280;33676;51.006;17.180;2023-05-31T02:53:27;100969.08;;;9.73;68.72
47913;BME280;33676;51.006;17.180;2023-05-31T02:55:58;100968.45;;;9.72;68.59
47913;BME280;33676;51.006;17.180;2023-05-31T02:58:26;100970.66;;;9.70;68.68
47913;BME280;33676;51.006;17.180;2023-05-31T03:00:55;100973.02;;;9.72;68.80
47913;BME280;33676;51.006;17.180;2023-05-31T03:03:23;100974.19;;;9.72;68.94
47913;BME280;33676;51.006;17.180;2023-05-31T03:05:51;100969.77;;;9.73;68.99
47913;BME280;33676;51.006;17.180;2023-05-31T03:08:20;100966.11;;;9.73;69.11
47913;BME280;33676;51.006;17.180;2023-05-31T03:10:49;100972.34;;;9.71;68.97
47913;BME280;33676;51.006;17.180;2023-05-31T03:13:17;100972.14;;;9.69;68.82
47913;BME280;33676;51.006;17.180;2023-05-31T03:15:46;100977.98;;;9.67;68.98
47913;BME280;33676;51.006;17.180;2023-05-31T03:18:15;100979.62;;;9.67;68.98
47913;BME280;33676;51.006;17.180;2023-05-31T03:20:43;100977.73;;;9.66;69.17
47913;BME280;33676;51.006;17.180;2023-05-31T03:23:12;100976.52;;;9.66;69.37
47913;BME280;33676;51.006;17.180;2023-05-31T03:25:40;100976.50;;;9.66;69.52
47913;BME280;33676;51.006;17.180;2023-05-31T03:28:09;100977.65;;;9.68;69.89
47913;BME280;33676;51.006;17.180;2023-05-31T03:30:38;100979.73;;;9.68;69.93
47913;BME280;33676;51.006;17.180;2023-05-31T03:33:07;100982.35;;;9.68;69.89
47913;BME280;33676;51.006;17.180;2023-05-31T03:35:36;100984.20;;;9.69;70.02
47913;BME280;33676;51.006;17.180;2023-05-31T03:38:04;100981.31;;;9.70;70.23
47913;BME280;33676;51.006;17.180;2023-05-31T03:40:33;100980.02;;;9.71;70.16
47913;BME280;33676;51.006;17.180;2023-05-31T03:43:01;100982.42;;;9.72;70.35
47913;BME280;33676;51.006;17.180;2023-05-31T03:45:30;100979.33;;;9.74;70.56
47913;BME280;33676;51.006;17.180;2023-05-31T03:47:58;100980.19;;;9.77;70.70
47913;BME280;33676;51.006;17.180;2023-05-31T03:50:27;100983.88;;;9.82;70.79
47913;BME280;33676;51.006;17.180;2023-05-31T03:52:55;100984.80;;;9.86;71.02
47913;BME280;33676;51.006;17.180;2023-05-31T03:55:23;100989.34;;;9.91;71.08
47913;BME280;33676;51.006;17.180;2023-05-31T03:57:53;100989.29;;;9.98;71.25
47913;BME280;33676;51.006;17.180;2023-05-31T04:00:22;100991.33;;;10.05;71.51
47913;BME280;33676;51.006;17.180;2023-05-31T04:02:52;100991.18;;;10.12;71.73
47913;BME280;33676;51.006;17.180;2023-05-31T04:05:32;100993.91;;;10.21;71.95
47913;BME280;33676;51.006;17.180;2023-05-31T04:08:01;100996.13;;;10.31;72.00
47913;BME280;33676;51.006;17.180;2023-05-31T04:10:31;100997.58;;;10.38;72.16
47913;BME280;33676;51.006;17.180;2023-05-31T04:13:00;100996.80;;;10.46;72.17
47913;BME280;33676;51.006;17.180;2023-05-31T04:15:28;100994.17;;;10.54;72.01
47913;BME280;33676;51.006;17.180;2023-05-31T04:17:57;100998.63;;;10.64;72.16
47913;BME280;33676;51.006;17.180;2023-05-31T04:20:25;100995.00;;;10.74;72.27
47913;BME280;33676;51.006;17.180;2023-05-31T04:22:54;100995.20;;;10.84;72.38
47913;BME280;33676;51.006;17.180;2023-05-31T04:25:23;100996.45;;;10.93;72.53
47913;BME280;33676;51.006;17.180;2023-05-31T04:27:51;100991.79;;;11.03;72.46
47913;BME280;33676;51.006;17.180;2023-05-31T04:30:20;100989.35;;;11.12;72.74
47913;BME280;33676;51.006;17.180;2023-05-31T04:32:49;100993.30;;;11.24;72.84
47913;BME280;33676;51.006;17.180;2023-05-31T04:35:21;100987.33;;;11.34;72.60
47913;BME280;33676;51.006;17.180;2023-05-31T04:37:50;100988.48;;;11.45;72.36
47913;BME280;33676;51.006;17.180;2023-05-31T04:40:21;100985.09;;;11.56;72.17
47913;BME280;33676;51.006;17.180;2023-05-31T04:42:50;100991.14;;;11.67;72.13
47913;BME280;33676;51.006;17.180;2023-05-31T04:45:18;100991.63;;;11.80;71.98
47913;BME280;33676;51.006;17.180;2023-05-31T04:47:47;100996.96;;;11.91;71.89
47913;BME280;33676;51.006;17.180;2023-05-31T04:50:18;100999.53;;;12.04;71.85
47913;BME280;33676;51.006;17.180;2023-05-31T04:52:47;101001.11;;;12.15;71.84
47913;BME280;33676;51.006;17.180;2023-05-31T04:55:16;101001.39;;;12.28;71.82
47913;BME280;33676;51.006;17.180;2023-05-31T04:57:45;101001.61;;;12.40;71.57
47913;BME280;33676;51.006;17.180;2023-05-31T05:00:14;101002.38;;;12.52;71.83
47913;BME280;33676;51.006;17.180;2023-05-31T05:02:44;101001.14;;;12.65;71.70
47913;BME280;33676;51.006;17.180;2023-05-31T05:05:13;101004.42;;;12.77;71.84
47913;BME280;33676;51.006;17.180;2023-05-31T05:07:44;101006.11;;;12.89;71.74
47913;BME280;33676;51.006;17.180;2023-05-31T05:10:12;101004.19;;;13.01;71.48
47913;BME280;33676;51.006;17.180;2023-05-31T05:12:41;101003.18;;;13.11;71.32
47913;BME280;33676;51.006;17.180;2023-05-31T05:15:09;101004.73;;;13.23;71.17
47913;BME280;33676;51.006;17.180;2023-05-31T05:17:38;100999.42;;;13.35;71.32
47913;BME280;33676;51.006;17.180;2023-05-31T05:20:07;101002.19;;;13.45;71.25
47913;BME280;33676;51.006;17.180;2023-05-31T05:22:38;101000.18;;;13.54;71.05
47913;BME280;33676;51.006;17.180;2023-05-31T05:25:09;100998.41;;;13.66;70.92
47913;BME280;33676;51.006;17.180;2023-05-31T05:27:37;100998.45;;;13.78;70.86
47913;BME280;33676;51.006;17.180;2023-05-31T05:30:08;100996.70;;;13.91;70.92
47913;BME280;33676;51.006;17.180;2023-05-31T05:32:36;100994.98;;;14.04;70.70
47913;BME280;33676;51.006;17.180;2023-05-31T05:35:05;100996.16;;;14.17;70.53
47913;BME280;33676;51.006;17.180;2023-05-31T05:37:34;100995.81;;;14.30;70.39
47913;BME280;33676;51.006;17.180;2023-05-31T05:40:03;100997.02;;;14.41;70.28
47913;BME280;33676;51.006;17.180;2023-05-31T05:42:35;100997.03;;;14.53;70.24
47913;BME280;33676;51.006;17.180;2023-05-31T05:45:06;100992.27;;;14.64;70.04
47913;BME280;33676;51.006;17.180;2023-05-31T05:47:52;100996.13;;;14.75;69.82
47913;BME280;33676;51.006;17.180;2023-05-31T05:50:24;100998.66;;;14.84;69.56
47913;BME280;33676;51.006;17.180;2023-05-31T05:52:52;100999.14;;;14.93;69.37
47913;BME280;33676;51.006;17.180;2023-05-31T05:55:21;101000.14;;;15.02;69.16
47913;BME280;33676;51.006;17.180;2023-05-31T05:57:49;100998.58;;;15.12;69.10
47913;BME280;33676;51.006;17.180;2023-05-31T06:00:19;100999.77;;;15.22;69.07
47913;BME280;33676;51.006;17.180;2023-05-31T06:02:50;100999.98;;;15.32;68.84
47913;BME280;33676;51.006;17.180;2023-05-31T06:05:20;101000.98;;;15.41;68.46
47913;BME280;33676;51.006;17.180;2023-05-31T06:07:54;100998.90;;;15.53;68.48
47913;BME280;33676;51.006;17.180;2023-05-31T06:10:23;100993.73;;;15.64;68.39
47913;BME280;33676;51.006;17.180;2023-05-31T06:12:52;100995.18;;;15.73;68.51
47913;BME280;33676;51.006;17.180;2023-05-31T06:15:21;101005.95;;;15.83;68.27
47913;BME280;33676;51.006;17.180;2023-05-31T06:17:52;101005.88;;;15.92;68.35
47913;BME280;33676;51.006;17.180;2023-05-31T06:20:21;101006.31;;;16.01;68.14
47913;BME280;33676;51.006;17.180;2023-05-31T06:22:50;101006.12;;;16.09;67.96
47913;BME280;33676;51.006;17.180;2023-05-31T06:25:19;101006.83;;;16.16;67.80
47913;BME280;33676;51.006;17.180;2023-05-31T06:27:48;101002.52;;;16.23;67.71
47913;BME280;33676;51.006;17.180;2023-05-31T06:30:17;101003.45;;;16.33;67.71
47913;BME280;33676;51.006;17.180;2023-05-31T06:32:46;101004.44;;;16.43;67.73
47913;BME280;33676;51.006;17.180;2023-05-31T06:35:14;101001.92;;;16.51;67.60
47913;BME280;33676;51.006;17.180;2023-05-31T06:37:43;101003.05;;;16.60;67.54
47913;BME280;33676;51.006;17.180;2023-05-31T06:40:12;100999.81;;;16.70;67.33
47913;BME280;33676;51.006;17.180;2023-05-31T06:42:41;100998.23;;;16.79;67.28
47913;BME280;33676;51.006;17.180;2023-05-31T06:45:10;100999.63;;;16.90;67.20
47913;BME280;33676;51.006;17.180;2023-05-31T06:47:38;101002.19;;;17.00;67.03
47913;BME280;33676;51.006;17.180;2023-05-31T06:50:12;101002.39;;;17.11;67.06
47913;BME280;33676;51.006;17.180;2023-05-31T06:52:43;100995.61;;;17.21;66.87
47913;BME280;33676;51.006;17.180;2023-05-31T06:55:12;100995.80;;;17.30;67.05
47913;BME280;33676;51.006;17.180;2023-05-31T06:57:41;100995.77;;;17.40;66.84
47913;BME280;33676;51.006;17.180;2023-05-31T07:00:10;100992.84;;;17.48;66.68
47913;BME280;33676;51.006;17.180;2023-05-31T07:02:39;100992.24;;;17.54;66.52
47913;BME280;33676;51.006;17.180;2023-05-31T07:05:08;100989.20;;;17.62;66.42
47913;BME280;33676;51.006;17.180;2023-05-31T07:07:36;100987.80;;;17.71;66.25
47913;BME280;33676;51.006;17.180;2023-05-31T07:10:06;100989.00;;;17.80;66.28
47913;BME280;33676;51.006;17.180;2023-05-31T07:12:34;100986.57;;;17.89;66.21
47913;BME280;33676;51.006;17.180;2023-05-31T07:15:04;100986.66;;;17.97;66.19
47913;BME280;33676;51.006;17.180;2023-05-31T07:17:32;100988.05;;;18.03;66.06
47913;BME280;33676;51.006;17.180;2023-05-31T07:20:01;100992.13;;;18.12;66.01
47913;BME280;33676;51.006;17.180;2023-05-31T07:22:29;100993.24;;;18.27;66.32
47913;BME280;33676;51.006;17.180;2023-05-31T07:24:58;100989.98;;;18.47;66.73
47913;BME280;33676;51.006;17.180;2023-05-31T07:27:26;100987.91;;;18.63;66.45
47913;BME280;33676;51.006;17.180;2023-05-31T07:29:55;100985.91;;;18.69;65.95
47913;BME280;33676;51.006;17.180;2023-05-31T07:32:24;100981.08;;;18.74;65.54
47913;BME280;33676;51.006;17.180;2023-05-31T07:34:53;100982.71;;;18.80;65.50
47913;BME280;33676;51.006;17.180;2023-05-31T07:37:34;100978.91;;;18.87;65.19
47913;BME280;33676;51.006;17.180;2023-05-31T07:40:03;100977.36;;;18.93;65.03
47913;BME280;33676;51.006;17.180;2023-05-31T07:42:35;100977.38;;;19.00;65.00
47913;BME280;33676;51.006;17.180;2023-05-31T07:45:03;100974.73;;;19.07;64.88
47913;BME280;33676;51.006;17.180;2023-05-31T07:47:34;100972.90;;;19.12;64.36
47913;BME280;33676;51.006;17.180;2023-05-31T07:50:03;100970.77;;;19.19;64.34
47913;BME280;33676;51.006;17.180;2023-05-31T07:52:33;100970.20;;;19.28;64.23
47913;BME280;33676;51.006;17.180;2023-05-31T07:55:01;100964.53;;;19.33;64.03
47913;BME280;33676;51.006;17.180;2023-05-31T07:57:33;100965.52;;;19.37;63.82
47913;BME280;33676;51.006;17.180;2023-05-31T08:00:02;100969.28;;;19.44;63.74
47913;BME280;33676;51.006;17.180;2023-05-31T08:02:31;100967.27;;;19.51;63.53
47913;BME280;33676;51.006;17.180;2023-05-31T08:04:59;100959.13;;;19.58;63.28
47913;BME280;33676;51.006;17.180;2023-05-31T08:07:30;100957.48;;;19.65;63.36
47913;BME280;33676;51.006;17.180;2023-05-31T08:09:59;100960.01;;;19.76;63.62
47913;BME280;33676;51.006;17.180;2023-05-31T08:12:28;100960.39;;;19.86;63.27
47913;BME280;33676;51.006;17.180;2023-05-31T08:14:59;100959.48;;;19.96;63.04
47913;BME280;33676;51.006;17.180;2023-05-31T08:17:27;100954.01;;;20.04;62.88
47913;BME280;33676;51.006;17.180;2023-05-31T08:19:56;100958.31;;;20.12;62.59
47913;BME280;33676;51.006;17.180;2023-05-31T08:22:25;100956.13;;;20.19;62.23
47913;BME280;33676;51.006;17.180;2023-05-31T08:24:58;100961.84;;;20.29;61.60
47913;BME280;33676;51.006;17.180;2023-05-31T08:27:27;100958.23;;;20.43;61.98
47913;BME280;33676;51.006;17.180;2023-05-31T08:29:56;100959.44;;;20.61;61.45
47913;BME280;33676;51.006;17.180;2023-05-31T08:32:25;100957.27;;;20.72;61.35
47913;BME280;33676;51.006;17.180;2023-05-31T08:34:55;100952.50;;;20.75;61.16
47913;BME280;33676;51.006;17.180;2023-05-31T08:37:23;100956.69;;;20.85;61.25
47913;BME280;33676;51.006;17.180;2023-05-31T08:39:51;100957.60;;;20.98;61.19
47913;BME280;33676;51.006;17.180;2023-05-31T08:42:37;100953.70;;;21.12;61.27
47913;BME280;33676;51.006;17.180;2023-05-31T08:45:09;100946.48;;;21.32;61.19
47913;BME280;33676;51.006;17.180;2023-05-31T08:47:43;100948.43;;;21.51;61.12
47913;BME280;33676;51.006;17.180;2023-05-31T08:50:12;100947.20;;;21.71;60.96
47913;BME280;33676;51.006;17.180;2023-05-31T08:52:43;100945.67;;;21.89;60.50
47913;BME280;33676;51.006;17.180;2023-05-31T08:55:13;100952.38;;;22.08;60.39
47913;BME280;33676;51.006;17.180;2023-05-31T08:57:42;100953.81;;;22.24;59.87
47913;BME280;33676;51.006;17.180;2023-05-31T09:00:12;100954.34;;;22.39;59.37
47913;BME280;33676;51.006;17.180;2023-05-31T09:02:42;100946.91;;;22.53;58.77
47913;BME280;33676;51.006;17.180;2023-05-31T09:05:10;100947.31;;;22.67;58.68
47913;BME280;33676;51.006;17.180;2023-05-31T09:07:39;100951.29;;;22.83;58.37
47913;BME280;33676;51.006;17.180;2023-05-31T09:10:08;100948.23;;;22.99;58.12
47913;BME280;33676;51.006;17.180;2023-05-31T09:12:37;100941.94;;;23.15;57.37
47913;BME280;33676;51.006;17.180;2023-05-31T09:15:07;100941.77;;;23.29;57.02
47913;BME280;33676;51.006;17.180;2023-05-31T09:17:36;100945.26;;;23.46;55.89
47913;BME280;33676;51.006;17.180;2023-05-31T09:20:05;100943.77;;;23.51;55.21
47913;BME280;33676;51.006;17.180;2023-05-31T09:22:34;100938.65;;;23.62;55.31
47913;BME280;33676;51.006;17.180;2023-05-31T09:25:03;100936.59;;;23.80;55.23
47913;BME280;33676;51.006;17.180;2023-05-31T09:27:37;100934.86;;;23.94;54.90
47913;BME280;33676;51.006;17.180;2023-05-31T09:30:11;100934.35;;;24.01;54.73
47913;BME280;33676;51.006;17.180;2023-05-31T09:32:40;100934.66;;;24.19;55.07
47913;BME280;33676;51.006;17.180;2023-05-31T09:35:16;100929.92;;;24.40;55.20
47913;BME280;33676;51.006;17.180;2023-05-31T09:37:47;100930.29;;;24.61;54.93
47913;BME280;33676;51.006;17.180;2023-05-31T09:40:31;100927.63;;;24.75;54.39
47913;BME280;33676;51.006;17.180;2023-05-31T09:43:01;100929.59;;;24.78;53.75
47913;BME280;33676;51.006;17.180;2023-05-31T09:45:30;100925.28;;;24.77;53.52
47913;BME280;33676;51.006;17.180;2023-05-31T09:47:59;100922.02;;;24.84;53.60
47913;BME280;33676;51.006;17.180;2023-05-31T09:50:28;100917.23;;;25.02;53.82
47913;BME280;33676;51.006;17.180;2023-05-31T09:52:57;100913.88;;;25.24;53.79
47913;BME280;33676;51.006;17.180;2023-05-31T09:55:39;100913.02;;;25.48;53.91
47913;BME280;33676;51.006;17.180;2023-05-31T09:58:27;100908.91;;;25.76;54.00
47913;BME280;33676;51.006;17.180;2023-05-31T10:00:58;100910.81;;;26.07;53.82
47913;BME280;33676;51.006;17.180;2023-05-31T10:03:28;100909.73;;;26.31;52.53
47913;BME280;33676;51.006;17.180;2023-05-31T10:05:56;100907.41;;;26.31;51.60
47913;BME280;33676;51.006;17.180;2023-05-31T10:08:25;100902.66;;;26.33;51.61
47913;BME280;33676;51.006;17.180;2023-05-31T10:10:55;100900.46;;;26.48;51.61
47913;BME280;33676;51.006;17.180;2023-05-31T10:13:28;100896.29;;;26.61;51.39
47913;BME280;33676;51.006;17.180;2023-05-31T10:16:04;100893.54;;;26.76;51.12
47913;BME280;33676;51.006;17.180;2023-05-31T10:18:37;100885.54;;;26.99;51.75
47913;BME280;33676;51.006;17.180;2023-05-31T10:21:10;100885.69;;;27.35;51.92
47913;BME280;33676;51.006;17.180;2023-05-31T10:23:45;100885.58;;;27.65;51.66
47913;BME280;33676;51.006;17.180;2023-05-31T10:26:18;100883.93;;;27.96;51.65
47913;BME280;33676;51.006;17.180;2023-05-31T10:31:35;100882.69;;;28.48;50.83
47913;BME280;33676;51.006;17.180;2023-05-31T10:34:25;100884.36;;;28.75;50.66
47913;BME280;33676;51.006;17.180;2023-05-31T10:36:55;100882.94;;;28.86;49.38
47913;BME280;33676;51.006;17.180;2023-05-31T10:39:34;100881.98;;;28.76;48.32
47913;BME280;33676;51.006;17.180;2023-05-31T10:45:15;100874.54;;;28.50;47.54
47913;BME280;33676;51.006;17.180;2023-05-31T10:48:09;100874.63;;;28.44;46.79
47913;BME280;33676;51.006;17.180;2023-05-31T10:50:58;100870.88;;;28.33;46.16
47913;BME280;33676;51.006;17.180;2023-05-31T10:53:35;100867.45;;;28.14;45.72
47913;BME280;33676;51.006;17.180;2023-05-31T10:56:06;100867.89;;;28.02;45.81
47913;BME280;33676;51.006;17.180;2023-05-31T10:58:39;100863.84;;;28.13;46.06
47913;BME280;33676;51.006;17.180;2023-05-31T11:01:14;100863.70;;;28.23;46.05
47913;BME280;33676;51.006;17.180;2023-05-31T11:03:53;100861.06;;;28.35;45.94
47913;BME280;33676;51.006;17.180;2023-05-31T11:06:30;100856.25;;;28.63;46.16
47913;BME280;33676;51.006;17.180;2023-05-31T11:09:10;100854.31;;;29.06;46.64
47913;BME280;33676;51.006;17.180;2023-05-31T11:14:22;100849.48;;;29.98;47.08
47913;BME280;33676;51.006;17.180;2023-05-31T11:19:30;100848.86;;;30.94;46.83
47913;BME280;33676;51.006;17.180;2023-05-31T11:22:08;100839.34;;;31.06;45.97
47913;BME280;33676;51.006;17.180;2023-05-31T11:24:53;100836.48;;;31.22;45.54
47913;BME280;33676;51.006;17.180;2023-05-31T11:27:43;100833.98;;;31.43;44.68
47913;BME280;33676;51.006;17.180;2023-05-31T11:30:16;100835.37;;;31.16;43.75
47913;BME280;33676;51.006;17.180;2023-05-31T11:32:57;100832.06;;;31.02;43.48
47913;BME280;33676;51.006;17.180;2023-05-31T11:35:25;100833.44;;;31.09;43.48
47913;BME280;33676;51.006;17.180;2023-05-31T11:38:04;100836.88;;;31.10;42.79
47913;BME280;33676;51.006;17.180;2023-05-31T11:40:34;100828.61;;;30.98;42.38
47913;BME280;33676;51.006;17.180;2023-05-31T11:43:06;100824.36;;;30.99;42.72
47913;BME280;33676;51.006;17.180;2023-05-31T11:45:40;100819.66;;;31.36;43.45
47913;BME280;33676;51.006;17.180;2023-05-31T11:48:34;100821.71;;;31.95;43.98
47913;BME280;33676;51.006;17.180;2023-05-31T11:51:05;100818.82;;;32.60;44.11
47913;BME280;33676;51.006;17.180;2023-05-31T11:53:34;100821.52;;;33.14;43.72
47913;BME280;33676;51.006;17.180;2023-05-31T11:56:02;100819.17;;;33.40;42.91
47913;BME280;33676;51.006;17.180;2023-05-31T11:58:31;100816.53;;;33.53;42.70
47913;BME280;33676;51.006;17.180;2023-05-31T12:01:00;100816.54;;;33.86;42.91
47913;BME280;33676;51.006;17.180;2023-05-31T12:03:28;100815.20;;;34.35;43.16
47913;BME280;33676;51.006;17.180;2023-05-31T12:05:59;100808.81;;;34.89;43.31
47913;BME280;33676;51.006;17.180;2023-05-31T12:08:29;100806.22;;;35.32;42.77
47913;BME280;33676;51.006;17.180;2023-05-31T12:11:02;100810.05;;;35.05;40.23
47913;BME280;33676;51.006;17.180;2023-05-31T12:13:33;100806.61;;;34.13;39.11
47913;BME280;33676;51.006;17.180;2023-05-31T12:16:03;100800.66;;;33.67;39.23
47913;BME280;33676;51.006;17.180;2023-05-31T12:18:32;100803.58;;;33.47;39.41
47913;BME280;33676;51.006;17.180;2023-05-31T12:21:09;100803.59;;;33.27;39.27
47913;BME280;33676;51.006;17.180;2023-05-31T12:23:57;100796.54;;;33.12;39.23
47913;BME280;33676;51.006;17.180;2023-05-31T12:26:26;100793.20;;;33.09;39.52
47913;BME280;33676;51.006;17.180;2023-05-31T12:28:55;100794.09;;;33.22;39.75
47913;BME280;33676;51.006;17.180;2023-05-31T12:31:25;100793.61;;;33.51;40.20
47913;BME280;33676;51.006;17.180;2023-05-31T12:36:49;100788.92;;;34.40;40.66
47913;BME280;33676;51.006;17.180;2023-05-31T12:39:20;100782.61;;;34.92;40.86
47913;BME280;33676;51.006;17.180;2023-05-31T12:41:50;100777.75;;;35.45;40.67
47913;BME280;33676;51.006;17.180;2023-05-31T12:44:23;100783.30;;;35.97;40.88
47913;BME280;33676;51.006;17.180;2023-05-31T12:46:59;100779.59;;;36.58;41.00
47913;BME280;33676;51.006;17.180;2023-05-31T12:49:29;100770.73;;;37.03;40.61
47913;BME280;33676;51.006;17.180;2023-05-31T12:51:59;100767.40;;;37.49;40.49
47913;BME280;33676;51.006;17.180;2023-05-31T12:54:38;100770.30;;;37.87;40.21
47913;BME280;33676;51.006;17.180;2023-05-31T12:57:08;100770.53;;;38.00;39.33
47913;BME280;33676;51.006;17.180;2023-05-31T12:59:37;100771.41;;;37.46;37.45
47913;BME280;33676;51.006;17.180;2023-05-31T13:02:09;100762.47;;;36.88;37.71
47913;BME280;33676;51.006;17.180;2023-05-31T13:04:37;100755.82;;;36.75;37.62
47913;BME280;33676;51.006;17.180;2023-05-31T13:07:06;100756.55;;;36.44;37.36
47913;BME280;33676;51.006;17.180;2023-05-31T13:09:34;100756.97;;;36.05;37.06
47913;BME280;33676;51.006;17.180;2023-05-31T13:12:03;100749.66;;;35.85;37.53
47913;BME280;33676;51.006;17.180;2023-05-31T13:14:32;100747.29;;;35.89;37.70
47913;BME280;33676;51.006;17.180;2023-05-31T13:17:05;100745.04;;;35.93;37.90